createdAt,value
2022-08-28T00:00:30.903Z,26.60
2022-08-28T00:03:09.973Z,26.50
2022-08-28T00:05:39.954Z,26.80
2022-08-28T00:08:09.162Z,27.30
2022-08-28T00:10:40.623Z,26.90
2022-08-28T00:13:10.143Z,26.20
2022-08-28T00:15:39.960Z,27.50
2022-08-28T00:18:08.193Z,26.80
2022-08-28T00:20:36.842Z,27.90
2022-08-28T00:23:06.210Z,27.00
2022-08-28T00:25:34.542Z,26.80
2022-08-28T00:28:05.473Z,26.80
2022-08-28T00:30:41.245Z,26.60
2022-08-28T00:33:18.654Z,26.40
2022-08-28T00:35:47.424Z,27.80
2022-08-28T00:38:18.836Z,27.80
2022-08-28T00:40:49.768Z,26.60
2022-08-28T00:43:36.762Z,26.10
2022-08-28T00:46:06.585Z,26.30
2022-08-28T00:48:34.986Z,26.20
2022-08-28T00:51:22.826Z,26.20
2022-08-28T00:53:51.460Z,26.70
2022-08-28T00:56:19.668Z,26.00
2022-08-28T00:58:49.443Z,25.80
2022-08-28T01:01:17.527Z,25.60
2022-08-28T01:03:45.964Z,25.40
2022-08-28T01:06:14.987Z,25.70
2022-08-28T01:08:44.387Z,25.60
2022-08-28T01:11:20.138Z,25.20
2022-08-28T01:13:48.785Z,25.60
2022-08-28T01:16:20.328Z,25.50
2022-08-28T01:18:49.346Z,25.10
2022-08-28T01:21:25.940Z,25.40
2022-08-28T01:23:59.604Z,26.20
2022-08-28T01:26:28.385Z,25.90
2022-08-28T01:28:58.416Z,27.00
2022-08-28T01:31:28.744Z,27.20
2022-08-28T01:33:59.385Z,28.20
2022-08-28T01:36:29.212Z,27.10
2022-08-28T01:38:59.351Z,28.20
2022-08-28T01:41:29.641Z,28.20
2022-08-28T01:43:57.672Z,27.10
2022-08-28T01:46:25.666Z,28.20
2022-08-28T01:48:53.579Z,28.70
2022-08-28T01:51:25.573Z,28.50
2022-08-28T01:53:53.886Z,27.70
2022-08-28T01:56:22.612Z,28.70
2022-08-28T01:58:50.712Z,29.30
2022-08-28T02:01:20.762Z,28.00
2022-08-28T02:03:49.600Z,27.30
2022-08-28T02:06:17.998Z,27.70
2022-08-28T02:08:46.825Z,27.60
2022-08-28T02:11:15.905Z,27.50
2022-08-28T02:13:43.705Z,27.30
2022-08-28T02:16:11.707Z,28.00
2022-08-28T02:18:39.993Z,27.20
2022-08-28T02:21:08.433Z,28.40
2022-08-28T02:23:42.998Z,28.90
2022-08-28T02:26:11.811Z,28.60
2022-08-28T02:28:39.605Z,28.80
2022-08-28T02:31:09.458Z,28.60
2022-08-28T02:33:38.854Z,29.90
2022-08-28T02:36:09.331Z,30.50
2022-08-28T02:38:38.357Z,30.60
2022-08-28T02:41:06.465Z,31.80
2022-08-28T02:43:34.590Z,31.30
2022-08-28T02:46:02.986Z,31.60
2022-08-28T02:48:32.070Z,32.00
2022-08-28T02:51:01.496Z,31.20
2022-08-28T02:53:30.429Z,31.40
2022-08-28T02:55:58.730Z,32.20
2022-08-28T02:58:27.528Z,30.90
2022-08-28T03:00:55.670Z,31.00
2022-08-28T03:03:23.780Z,31.30
2022-08-28T03:05:51.955Z,30.50
2022-08-28T03:08:19.905Z,30.80
2022-08-28T03:10:55.350Z,29.80
2022-08-28T03:13:26.750Z,31.60
2022-08-28T03:15:55.740Z,30.70
2022-08-28T03:18:25.583Z,31.10
2022-08-28T03:20:55.813Z,31.00
2022-08-28T03:23:26.585Z,30.90
2022-08-28T03:25:59.240Z,31.70
2022-08-28T03:28:28.949Z,31.50
2022-08-28T03:30:57.924Z,32.20
2022-08-28T03:33:26.950Z,31.50
2022-08-28T03:35:55.814Z,32.10
2022-08-28T03:38:25.418Z,30.30
2022-08-28T03:40:53.727Z,31.20
2022-08-28T03:43:23.336Z,31.10
2022-08-28T03:45:59.063Z,31.20
2022-08-28T03:48:28.705Z,32.70
2022-08-28T03:50:56.958Z,31.00
2022-08-28T03:53:26.046Z,31.10
2022-08-28T03:55:54.550Z,30.80
2022-08-28T03:58:23.460Z,32.00
2022-08-28T04:00:52.574Z,32.40
2022-08-28T04:03:20.545Z,32.40
2022-08-28T04:05:48.763Z,32.00
2022-08-28T04:08:17.773Z,31.60
2022-08-28T04:10:46.691Z,31.60
2022-08-28T04:13:15.563Z,31.20
2022-08-28T04:15:43.410Z,31.70
2022-08-28T04:18:11.903Z,31.80
2022-08-28T04:20:39.742Z,29.60
2022-08-28T04:23:10.186Z,30.00
2022-08-28T04:25:40.211Z,28.50
2022-08-28T04:28:08.549Z,28.00
2022-08-28T04:30:36.590Z,28.00
2022-08-28T04:33:06.205Z,28.50
2022-08-28T04:35:34.899Z,27.50
2022-08-28T04:38:05.611Z,28.80
2022-08-28T04:40:33.703Z,28.70
2022-08-28T04:43:01.602Z,27.20
2022-08-28T04:45:29.669Z,28.10
2022-08-28T04:47:58.273Z,27.80
2022-08-28T04:50:28.481Z,27.80
2022-08-28T04:52:56.841Z,27.60
2022-08-28T04:55:48.521Z,27.70
2022-08-28T04:58:13.393Z,28.90
2022-08-28T05:00:42.830Z,27.80
2022-08-28T05:03:12.221Z,28.10
2022-08-28T05:05:44.722Z,28.20
2022-08-28T05:08:13.324Z,28.80
2022-08-28T05:10:41.752Z,31.30
2022-08-28T05:13:11.027Z,29.50
2022-08-28T05:15:39.605Z,31.50
2022-08-28T05:18:07.696Z,31.80
2022-08-28T05:20:37.411Z,29.30
2022-08-28T05:23:06.201Z,29.70
2022-08-28T05:25:35.752Z,29.80
2022-08-28T05:28:03.871Z,30.20
2022-08-28T05:30:32.240Z,29.30
2022-08-28T05:33:00.577Z,29.90
2022-08-28T05:35:28.354Z,28.40
2022-08-28T05:37:56.351Z,28.20
2022-08-28T05:40:24.600Z,28.30
2022-08-28T05:42:52.809Z,28.10
2022-08-28T05:45:22.597Z,27.30
2022-08-28T05:47:52.167Z,28.40
2022-08-28T05:50:22.865Z,26.80
2022-08-28T05:52:50.920Z,28.20
2022-08-28T05:55:19.003Z,25.60
2022-08-28T05:57:46.959Z,25.00
2022-08-28T06:00:18.719Z,24.90
2022-08-28T06:02:46.616Z,25.40
2022-08-28T06:05:14.976Z,26.00
2022-08-28T06:07:43.301Z,26.10
2022-08-28T06:10:11.205Z,25.80
2022-08-28T06:12:39.172Z,25.90
2022-08-28T06:15:09.082Z,26.80
2022-08-28T06:17:38.082Z,26.00
2022-08-28T06:20:06.385Z,27.00
2022-08-28T06:22:34.634Z,27.30
2022-08-28T06:25:06.375Z,27.00
2022-08-28T06:27:39.792Z,26.70
2022-08-28T06:30:09.271Z,27.40
2022-08-28T06:32:37.874Z,26.70
2022-08-28T06:35:06.879Z,26.90
2022-08-28T06:37:34.807Z,27.10
2022-08-28T06:40:03.228Z,27.00
2022-08-28T06:42:33.049Z,26.50
2022-08-28T06:45:02.277Z,27.60
2022-08-28T06:47:30.194Z,28.00
2022-08-28T06:49:58.529Z,28.20
2022-08-28T06:52:26.543Z,29.60
2022-08-28T06:54:55.952Z,29.50
2022-08-28T06:57:26.441Z,29.30
2022-08-28T06:59:57.902Z,29.80
2022-08-28T07:02:28.377Z,30.10
2022-08-28T07:04:56.737Z,29.30
2022-08-28T07:07:31.471Z,31.40
2022-08-28T07:10:00.754Z,31.40
2022-08-28T07:12:29.351Z,31.80
2022-08-28T07:14:57.616Z,30.60
2022-08-28T07:17:26.073Z,30.70
2022-08-28T07:19:54.199Z,30.10
2022-08-28T07:22:23.057Z,30.20
2022-08-28T07:24:51.087Z,29.80
2022-08-28T07:27:19.281Z,29.60
2022-08-28T07:29:46.984Z,29.50
2022-08-28T07:32:16.166Z,30.30
2022-08-28T07:34:44.174Z,29.30
2022-08-28T07:37:15.338Z,28.60
2022-08-28T07:39:44.077Z,28.20
2022-08-28T07:42:35.465Z,27.90
2022-08-28T07:45:04.390Z,27.20
2022-08-28T07:47:32.460Z,28.00
2022-08-28T07:50:02.073Z,26.60
2022-08-28T07:52:30.536Z,26.80
2022-08-28T07:54:58.629Z,27.60
2022-08-28T07:57:27.286Z,27.80
2022-08-28T07:59:55.584Z,26.70
2022-08-28T08:02:24.050Z,26.20
2022-08-28T08:04:52.004Z,26.60
2022-08-28T08:07:20.904Z,26.60
2022-08-28T08:09:48.976Z,27.10
2022-08-28T08:12:18.068Z,25.60
2022-08-28T08:14:45.843Z,25.60
2022-08-28T08:17:14.177Z,24.90
2022-08-28T08:19:42.678Z,24.60
2022-08-28T08:22:12.280Z,23.60
2022-08-28T08:24:42.321Z,24.20
2022-08-28T08:27:10.899Z,23.90
2022-08-28T08:29:42.054Z,24.00
2022-08-28T08:32:11.398Z,23.00
2022-08-28T08:34:41.746Z,24.00
2022-08-28T08:37:10.976Z,22.90
2022-08-28T08:39:40.381Z,23.30
2022-08-28T08:42:17.661Z,22.60
2022-08-28T08:47:19.968Z,22.80
2022-08-28T08:49:57.846Z,23.10
2022-08-28T08:52:45.488Z,22.80
2022-08-28T08:55:19.318Z,22.00
2022-08-28T08:57:51.347Z,21.80
2022-08-28T09:00:21.154Z,21.50
2022-08-28T09:03:28.077Z,20.60
2022-08-28T09:06:00.350Z,20.30
2022-08-28T09:08:28.590Z,19.30
2022-08-28T09:11:22.553Z,17.60
2022-08-28T09:14:14.868Z,17.90
2022-08-28T09:16:45.678Z,16.30
2022-08-28T09:19:16.885Z,16.40
2022-08-28T09:21:45.353Z,15.90
2022-08-28T09:24:21.633Z,15.80
2022-08-28T09:26:57.672Z,15.10
2022-08-28T09:29:28.109Z,15.40
2022-08-28T09:31:56.424Z,15.00
2022-08-28T09:34:35.495Z,14.40
2022-08-28T09:37:08.476Z,14.70
2022-08-28T09:39:36.271Z,14.20
2022-08-28T09:42:26.189Z,13.40
2022-08-28T09:45:13.886Z,13.40
2022-08-28T09:47:46.807Z,13.00
2022-08-28T09:50:21.809Z,12.50
2022-08-28T09:52:51.354Z,12.30
2022-08-28T09:55:25.218Z,12.00
2022-08-28T09:57:54.565Z,10.50
2022-08-28T10:00:23.205Z,10.20
2022-08-28T10:02:55.781Z,8.70
2022-08-28T10:05:44.460Z,8.40
2022-08-28T10:08:35.714Z,6.90
2022-08-28T10:11:12.190Z,7.00
2022-08-28T10:13:46.282Z,6.50
2022-08-28T10:16:14.958Z,6.50
2022-08-28T10:18:48.465Z,6.60
2022-08-28T10:21:35.016Z,6.20
2022-08-28T10:26:34.503Z,6.10
2022-08-28T10:29:16.024Z,5.60
2022-08-28T10:32:05.480Z,6.00
2022-08-28T10:34:55.692Z,5.50
2022-08-28T10:37:41.996Z,5.50
2022-08-28T10:40:18.178Z,4.90
2022-08-28T10:42:51.239Z,5.40
2022-08-28T10:45:21.762Z,5.60
2022-08-28T10:47:53.198Z,5.60
2022-08-28T10:50:26.716Z,5.40
2022-08-28T10:53:05.952Z,5.30
2022-08-28T10:55:36.714Z,5.40
2022-08-28T10:58:24.364Z,5.30
2022-08-28T11:01:02.244Z,4.60
2022-08-28T11:03:34.768Z,4.70
2022-08-28T11:06:11.607Z,4.80
2022-08-28T11:08:40.045Z,4.90
2022-08-28T11:11:15.355Z,4.90
2022-08-28T11:14:10.905Z,4.40
2022-08-28T11:16:43.577Z,4.50
2022-08-28T11:19:18.626Z,4.70
2022-08-28T11:21:54.373Z,5.00
2022-08-28T11:24:44.214Z,5.30
2022-08-28T11:27:33.571Z,4.90
2022-08-28T11:30:11.081Z,4.80
2022-08-28T11:32:55.047Z,4.90
2022-08-28T11:35:25.965Z,4.80
2022-08-28T11:37:55.326Z,4.30
2022-08-28T11:40:32.759Z,4.20
2022-08-28T11:43:16.726Z,4.20
2022-08-28T11:45:48.258Z,4.70
2022-08-28T11:48:25.496Z,4.30
2022-08-28T11:51:04.191Z,4.10
2022-08-28T11:53:55.098Z,4.40
2022-08-28T11:56:42.833Z,4.00
2022-08-28T11:59:33.931Z,4.20
2022-08-28T12:02:23.839Z,4.30
2022-08-28T12:04:52.514Z,4.30
2022-08-28T12:07:22.303Z,4.70
2022-08-28T12:09:53.980Z,4.20
2022-08-28T12:12:22.975Z,4.20
2022-08-28T12:15:20.826Z,4.50
2022-08-28T12:17:49.652Z,4.00
2022-08-28T12:20:29.807Z,4.60
2022-08-28T12:23:00.922Z,4.80
2022-08-28T12:25:43.412Z,4.30
2022-08-28T12:28:19.185Z,4.50
2022-08-28T12:31:00.279Z,4.40
2022-08-28T12:33:32.846Z,4.90
2022-08-28T12:36:02.772Z,5.60
2022-08-28T12:38:32.192Z,5.20
2022-08-28T12:41:01.991Z,4.60
2022-08-28T12:43:32.480Z,4.60
2022-08-28T12:46:07.030Z,4.40
2022-08-28T12:48:54.557Z,4.60
2022-08-28T12:51:27.561Z,4.60
2022-08-28T12:53:57.653Z,4.40
2022-08-28T12:56:26.951Z,4.00
2022-08-28T12:58:54.919Z,4.10
2022-08-28T13:01:28.952Z,3.30
2022-08-28T13:04:07.600Z,3.70
2022-08-28T13:06:39.102Z,3.70
2022-08-28T13:09:14.157Z,4.10
2022-08-28T13:11:46.543Z,5.00
2022-08-28T13:14:16.825Z,4.50
2022-08-28T13:16:46.906Z,3.80
2022-08-28T13:19:28.949Z,4.20
2022-08-28T13:22:02.269Z,4.10
2022-08-28T13:24:44.875Z,4.60
2022-08-28T13:27:18.922Z,5.00
2022-08-28T13:29:57.129Z,5.10
2022-08-28T13:32:29.983Z,5.40
2022-08-28T13:35:03.734Z,5.80
2022-08-28T13:37:48.344Z,6.40
2022-08-28T13:40:53.313Z,6.00
2022-08-28T13:43:10.167Z,6.20
2022-08-28T13:45:43.608Z,5.90
2022-08-28T13:48:16.158Z,6.40
2022-08-28T13:50:47.280Z,5.90
2022-08-28T13:53:18.264Z,5.60
2022-08-28T13:55:48.001Z,6.00
2022-08-28T13:58:16.430Z,6.60
2022-08-28T14:00:46.081Z,5.80
2022-08-28T14:03:33.141Z,5.90
2022-08-28T14:06:03.225Z,5.80
2022-08-28T14:08:31.340Z,6.40
2022-08-28T14:10:59.615Z,6.20
2022-08-28T14:13:28.308Z,6.00
2022-08-28T14:15:57.080Z,6.20
2022-08-28T14:18:26.084Z,6.20
2022-08-28T14:20:55.479Z,6.40
2022-08-28T14:23:25.367Z,6.80
2022-08-28T14:25:56.107Z,7.10
2022-08-28T14:28:25.114Z,6.90
2022-08-28T14:30:53.698Z,5.90
2022-08-28T14:33:23.593Z,6.10
2022-08-28T14:35:53.734Z,6.10
2022-08-28T14:38:22.524Z,5.70
2022-08-28T14:40:50.702Z,6.00
2022-08-28T14:43:22.613Z,6.40
2022-08-28T14:45:52.860Z,6.80
2022-08-28T14:48:21.595Z,6.80
2022-08-28T14:50:50.213Z,6.40
2022-08-28T14:53:18.778Z,6.70
2022-08-28T14:55:48.742Z,6.70
2022-08-28T14:58:18.150Z,6.50
2022-08-28T15:00:49.070Z,6.70
2022-08-28T15:03:18.803Z,5.90
2022-08-28T15:05:47.282Z,6.00
2022-08-28T15:08:16.580Z,5.60
2022-08-28T15:10:44.754Z,5.00
2022-08-28T15:13:12.984Z,5.50
2022-08-28T15:15:43.559Z,4.90
2022-08-28T15:18:11.629Z,4.80
2022-08-28T15:20:41.017Z,4.90
2022-08-28T15:23:10.385Z,4.80
2022-08-28T15:25:38.875Z,4.50
2022-08-28T15:28:07.963Z,5.60
2022-08-28T15:30:37.378Z,5.60
2022-08-28T15:33:05.552Z,5.70
2022-08-28T15:35:35.810Z,5.50
2022-08-28T15:38:05.012Z,5.10
2022-08-28T15:40:52.972Z,5.20
2022-08-28T15:43:24.931Z,5.10
2022-08-28T15:45:54.308Z,5.20
2022-08-28T15:48:23.119Z,5.10
2022-08-28T15:50:52.542Z,5.70
2022-08-28T15:53:20.803Z,5.20
2022-08-28T15:55:50.766Z,5.10
2022-08-28T15:58:19.307Z,5.20
2022-08-28T16:00:47.622Z,5.90
2022-08-28T16:03:15.830Z,6.70
2022-08-28T16:05:44.924Z,6.80
2022-08-28T16:08:13.707Z,6.70
2022-08-28T16:10:46.865Z,6.80
2022-08-28T16:13:15.695Z,7.30
2022-08-28T16:15:44.788Z,6.70
2022-08-28T16:18:14.093Z,7.40
2022-08-28T16:20:43.308Z,7.50
2022-08-28T16:23:12.644Z,7.50
2022-08-28T16:25:44.674Z,7.80
2022-08-28T16:28:14.489Z,7.20
2022-08-28T16:30:44.001Z,8.10
2022-08-28T16:33:12.958Z,8.60
2022-08-28T16:35:49.275Z,8.50
2022-08-28T16:40:47.756Z,9.80
2022-08-28T16:43:17.555Z,9.90
2022-08-28T16:45:47.884Z,10.20
2022-08-28T16:48:17.051Z,10.50
2022-08-28T16:50:46.176Z,9.90
2022-08-28T16:53:20.038Z,10.50
2022-08-28T16:55:57.753Z,11.50
2022-08-28T16:58:26.439Z,11.70
2022-08-28T17:00:56.475Z,12.40
2022-08-28T17:03:26.661Z,13.00
2022-08-28T17:05:57.692Z,12.80
2022-08-28T17:08:25.886Z,13.20
2022-08-28T17:10:54.376Z,13.20
2022-08-28T17:13:24.752Z,13.50
2022-08-28T17:15:53.192Z,13.70
2022-08-28T17:18:24.450Z,13.50
2022-08-28T17:21:14.520Z,13.50
2022-08-28T17:23:44.531Z,13.00
2022-08-28T17:26:13.621Z,13.80
2022-08-28T17:28:52.286Z,14.10
2022-08-28T17:31:23.122Z,13.90
2022-08-28T17:33:55.398Z,14.90
2022-08-28T17:36:33.820Z,15.60
2022-08-28T17:39:06.185Z,15.70
2022-08-28T17:41:35.018Z,16.40
2022-08-28T17:44:06.005Z,16.10
2022-08-28T17:46:38.048Z,15.90
2022-08-28T17:49:08.105Z,15.90
2022-08-28T17:51:43.213Z,15.50
2022-08-28T17:54:14.015Z,15.80
2022-08-28T17:56:43.786Z,15.60
2022-08-28T17:59:12.304Z,16.70
2022-08-28T18:01:44.906Z,16.10
2022-08-28T18:04:23.875Z,16.90
2022-08-28T18:06:56.110Z,16.40
2022-08-28T18:09:25.890Z,16.10
2022-08-28T18:11:53.960Z,16.40
2022-08-28T18:14:22.980Z,17.20
2022-08-28T18:16:52.858Z,17.00
2022-08-28T18:19:21.058Z,16.70
2022-08-28T18:21:48.846Z,18.10
2022-08-28T18:24:18.874Z,17.70
2022-08-28T18:26:48.851Z,18.00
2022-08-28T18:29:18.598Z,17.00
2022-08-28T18:31:47.481Z,17.90
2022-08-28T18:34:17.250Z,16.70
2022-08-28T18:36:44.103Z,16.20
2022-08-28T18:39:12.270Z,15.70
2022-08-28T18:41:44.573Z,14.40
2022-08-28T18:44:21.180Z,15.00
2022-08-28T18:46:53.750Z,14.60
2022-08-28T18:49:23.078Z,15.00
2022-08-28T18:51:51.670Z,14.60
2022-08-28T18:54:25.376Z,14.20
2022-08-28T18:57:04.093Z,13.50
2022-08-28T18:59:33.599Z,13.30
2022-08-28T19:02:02.404Z,13.10
2022-08-28T19:04:30.669Z,13.40
2022-08-28T19:06:59.774Z,13.50
2022-08-28T19:09:31.756Z,13.50
2022-08-28T19:12:01.635Z,12.90
2022-08-28T19:14:30.124Z,13.00
2022-08-28T19:16:58.804Z,12.20
2022-08-28T19:19:27.082Z,12.90
2022-08-28T19:21:55.457Z,12.10
2022-08-28T19:24:24.867Z,12.20
2022-08-28T19:26:55.230Z,12.20
2022-08-28T19:29:23.973Z,12.40
2022-08-28T19:31:52.864Z,11.80
2022-08-28T19:34:22.705Z,12.20
2022-08-28T19:36:52.415Z,12.60
2022-08-28T19:39:22.472Z,12.20
2022-08-28T19:41:53.492Z,11.40
2022-08-28T19:44:25.517Z,11.40
2022-08-28T19:46:55.244Z,10.60
2022-08-28T19:49:24.211Z,10.40
2022-08-28T19:51:52.281Z,10.10
2022-08-28T19:54:20.867Z,10.00
2022-08-28T19:56:49.063Z,9.30
2022-08-28T19:59:17.733Z,9.30
2022-08-28T20:01:47.280Z,8.70
2022-08-28T20:04:18.995Z,8.80
2022-08-28T20:06:48.601Z,8.00
2022-08-28T20:09:17.514Z,8.30
2022-08-28T20:11:47.297Z,8.60
2022-08-28T20:14:17.837Z,8.60
2022-08-28T20:16:49.111Z,8.40
2022-08-28T20:19:19.294Z,8.10
2022-08-28T20:21:53.606Z,7.50
2022-08-28T20:24:23.800Z,7.20
2022-08-28T20:26:52.207Z,7.50
2022-08-28T20:29:20.487Z,6.90
2022-08-28T20:31:48.868Z,6.50
2022-08-28T20:34:18.178Z,6.60
2022-08-28T20:36:48.155Z,7.00
2022-08-28T20:39:16.559Z,6.60
2022-08-28T20:41:46.267Z,6.40
2022-08-28T20:44:16.100Z,6.20
2022-08-28T20:46:50.953Z,6.40
2022-08-28T20:49:22.419Z,6.20
2022-08-28T20:51:54.636Z,6.90
2022-08-28T20:54:26.091Z,6.90
2022-08-28T20:56:54.770Z,6.40
2022-08-28T20:59:24.025Z,6.60
2022-08-28T21:01:59.026Z,6.20
2022-08-28T21:04:31.672Z,6.60
2022-08-28T21:07:01.005Z,6.90
2022-08-28T21:09:53.721Z,6.60
2022-08-28T21:12:19.445Z,6.10
2022-08-28T21:14:51.462Z,6.10
2022-08-28T21:17:28.886Z,6.70
2022-08-28T21:20:00.429Z,6.20
2022-08-28T21:22:30.252Z,7.30
2022-08-28T21:24:58.658Z,6.20
2022-08-28T21:27:26.982Z,6.60
2022-08-28T21:29:56.115Z,6.60
2022-08-28T21:32:24.498Z,6.30
2022-08-28T21:34:53.237Z,6.50
2022-08-28T21:37:22.953Z,6.40
2022-08-28T21:39:52.397Z,6.50
2022-08-28T21:42:22.103Z,6.80
2022-08-28T21:44:51.451Z,6.70
2022-08-28T21:47:23.885Z,6.50
2022-08-28T21:49:54.110Z,6.90
2022-08-28T21:52:23.503Z,6.50
2022-08-28T21:54:56.200Z,6.10
2022-08-28T21:57:26.242Z,6.50
2022-08-28T21:59:54.601Z,6.60
2022-08-28T22:02:22.910Z,6.30
2022-08-28T22:04:51.135Z,6.60
2022-08-28T22:07:19.491Z,6.70
2022-08-28T22:09:47.411Z,6.80
2022-08-28T22:12:16.509Z,6.70
2022-08-28T22:14:45.015Z,6.80
2022-08-28T22:17:15.200Z,7.20
2022-08-28T22:19:46.980Z,6.80
2022-08-28T22:22:34.291Z,6.90
2022-08-28T22:25:03.077Z,6.70
2022-08-28T22:27:34.892Z,6.70
2022-08-28T22:30:04.238Z,6.50
2022-08-28T22:32:32.069Z,7.10
2022-08-28T22:35:00.461Z,6.70
2022-08-28T22:37:29.436Z,7.00
2022-08-28T22:39:58.350Z,6.80
2022-08-28T22:42:28.448Z,6.80
2022-08-28T22:44:56.421Z,6.60
2022-08-28T22:47:24.799Z,6.90
2022-08-28T22:49:55.031Z,6.50
2022-08-28T22:52:23.008Z,6.20
2022-08-28T22:54:53.194Z,7.10
2022-08-28T22:57:22.069Z,6.50
2022-08-28T22:59:50.576Z,6.80
2022-08-28T23:02:21.049Z,7.30
2022-08-28T23:04:51.987Z,6.90
2022-08-28T23:07:24.156Z,6.80
2022-08-28T23:09:53.597Z,6.60
2022-08-28T23:12:21.898Z,6.60
2022-08-28T23:14:50.063Z,6.00
2022-08-28T23:17:18.803Z,6.40
2022-08-28T23:19:48.586Z,7.70
2022-08-28T23:22:18.190Z,6.50
2022-08-28T23:24:47.033Z,6.60
2022-08-28T23:27:35.365Z,6.10
2022-08-28T23:30:04.915Z,7.00
2022-08-28T23:32:34.127Z,7.00
2022-08-28T23:35:07.154Z,6.70
2022-08-28T23:37:37.008Z,6.20
2022-08-28T23:40:12.992Z,7.00
2022-08-28T23:42:41.728Z,6.00
2022-08-28T23:45:11.256Z,6.40
2022-08-28T23:47:40.435Z,6.40
2022-08-28T23:50:11.553Z,6.90
2022-08-28T23:52:39.670Z,6.50
2022-08-28T23:55:08.224Z,6.00
2022-08-28T23:57:36.448Z,5.60
